^^
Grace C. Lehan Memorial Weather Station Historical Data
Daily Summary for August 11, 2021 Units:  Both    English   Metric
Daily Weekly Monthly Yearly
  High: Low: Average:
Temperature: 59.8 °F /  15.4 °C 33.8 °F /  1 °C 46.5 °F /  8.1 °C
Dew Point: 45.5 °F /  7.5 °C 30.6 °F /  -0.8 °C 37 °F /  2.8 °C
Humidity: 90% 45.2% 71%
Wind Speed: 1mph /  1.6km/h - 0.1mph /  0.2km/h
Wind Gust: 6mph /  9.7km/h - -
Wind- - SE
Pressure: 30.33 in /  1027 hPa 30.24 in /  1023.9 hPa -
Precipitation: 0.00 in /  0 mm    
 
 
Tabular Data for August 11, 2021
Time Temperature Dew Point Pressure Wind Wind Speed Wind Gust Humidity Rainfall Rate (Hourly) solar
00:04 40.7 °F /  4.8 °C 32.6 °F /  0.3 °C 30.25in /  1024.3hPa Calm     72.5% 0.00in /  0mm 0 W/m2
00:09 40.7 °F /  4.8 °C 32.3 °F /  0.2 °C 30.25in /  1024.3hPa Calm     71.9% 0.00in /  0mm 0 W/m2
00:14 40.7 °F /  4.8 °C 32 °F /  0 °C 30.25in /  1024.3hPa Calm     71% 0.00in /  0mm 0 W/m2
00:19 40.8 °F /  4.9 °C 32 °F /  0 °C 30.25in /  1024.3hPa Calm     70.6% 0.00in /  0mm 0 W/m2
00:24 40.8 °F /  4.9 °C 31.8 °F /  -0.1 °C 30.25in /  1024.3hPa Calm     70% 0.00in /  0mm 0 W/m2
00:29 40.9 °F /  4.9 °C 31.9 °F /  -0.1 °C 30.26in /  1024.6hPa NW 0.1mph /  0.2km/h 3mph /  4.8km/h 70% 0.00in /  0mm 0 W/m2
00:34 41 °F /  5 °C 32.4 °F /  0.2 °C 30.26in /  1024.6hPa Calm   3mph /  4.8km/h 71.3% 0.00in /  0mm 0 W/m2
00:39 40.9 °F /  4.9 °C 32.5 °F /  0.3 °C 30.26in /  1024.6hPa Calm     71.7% 0.00in /  0mm 0 W/m2
00:44 40.9 °F /  4.9 °C 32.2 °F /  0.1 °C 30.26in /  1024.6hPa Calm     70.8% 0.00in /  0mm 0 W/m2
00:49 40.9 °F /  4.9 °C 32 °F /  0 °C 30.26in /  1024.6hPa Calm     70.2% 0.00in /  0mm 0 W/m2
00:54 41.1 °F /  5.1 °C 32.7 °F /  0.4 °C 30.26in /  1024.6hPa Calm     71.8% 0.00in /  0mm 0 W/m2
00:59 41.2 °F /  5.1 °C 32.7 °F /  0.4 °C 30.26in /  1024.6hPa Calm     71.6% 0.00in /  0mm 0 W/m2
01:04 41.2 °F /  5.1 °C 32.5 °F /  0.3 °C 30.26in /  1024.6hPa Calm   1mph /  1.6km/h 71% 0.00in /  0mm 0 W/m2
01:09 41 °F /  5 °C 32.3 °F /  0.2 °C 30.26in /  1024.6hPa Calm   1mph /  1.6km/h 71% 0.00in /  0mm 0 W/m2
01:14 40.8 °F /  4.9 °C 32.1 °F /  0.1 °C 30.26in /  1024.6hPa NW 0.4mph /  0.6km/h 2mph /  3.2km/h 71% 0.00in /  0mm 0 W/m2
01:19 40.6 °F /  4.8 °C 32 °F /  0 °C 30.26in /  1024.6hPa NW 0.4mph /  0.6km/h 2mph /  3.2km/h 71% 0.00in /  0mm 0 W/m2
01:24 40.6 °F /  4.8 °C 32 °F /  0 °C 30.26in /  1024.6hPa Calm   2mph /  3.2km/h 71% 0.00in /  0mm 0 W/m2
01:29 40.6 °F /  4.8 °C 31.8 °F /  -0.1 °C 30.26in /  1024.6hPa Calm   2mph /  3.2km/h 70.7% 0.00in /  0mm 0 W/m2
01:34 40.6 °F /  4.8 °C 31.6 °F /  -0.2 °C 30.26in /  1024.6hPa NW 0.1mph /  0.2km/h 2mph /  3.2km/h 70% 0.00in /  0mm 0 W/m2
01:39 40.8 °F /  4.9 °C 32.1 °F /  0.1 °C 30.25in /  1024.3hPa Calm   2mph /  3.2km/h 70.9% 0.00in /  0mm 0 W/m2
01:44 41.1 °F /  5.1 °C 32.1 °F /  0.1 °C 30.25in /  1024.3hPa Calm   2mph /  3.2km/h 70.1% 0.00in /  0mm 0 W/m2
01:49 41.3 °F /  5.2 °C 31.9 °F /  -0.1 °C 30.25in /  1024.3hPa Calm   2mph /  3.2km/h 69% 0.00in /  0mm 0 W/m2
01:54 41.5 °F /  5.3 °C 32.1 °F /  0.1 °C 30.25in /  1024.3hPa Calm   2mph /  3.2km/h 68.8% 0.00in /  0mm 0 W/m2
01:59 41.7 °F /  5.4 °C 32.6 °F /  0.3 °C 30.25in /  1024.3hPa Calm   2mph /  3.2km/h 69.6% 0.00in /  0mm 0 W/m2
02:04 41.8 °F /  5.4 °C 33 °F /  0.6 °C 30.25in /  1024.3hPa Calm   2mph /  3.2km/h 70.7% 0.00in /  0mm 0 W/m2
02:09 41.6 °F /  5.3 °C 32.9 °F /  0.5 °C 30.25in /  1024.3hPa Calm     71.1% 0.00in /  0mm 0 W/m2
02:14 41.4 °F /  5.2 °C 32.9 °F /  0.5 °C 30.25in /  1024.3hPa Calm     71.7% 0.00in /  0mm 0 W/m2
02:19 41.1 °F /  5.1 °C 32.8 °F /  0.4 °C 30.25in /  1024.3hPa Calm     72% 0.00in /  0mm 0 W/m2
02:24 40.9 °F /  4.9 °C 32.8 °F /  0.4 °C 30.25in /  1024.3hPa Calm     72.7% 0.00in /  0mm 0 W/m2
02:29 40.7 °F /  4.8 °C 32.4 °F /  0.2 °C 30.26in /  1024.6hPa Calm     72% 0.00in /  0mm 0 W/m2
02:34 40.6 °F /  4.8 °C 32.3 °F /  0.2 °C 30.26in /  1024.6hPa Calm     72% 0.00in /  0mm 0 W/m2
02:39 40.5 °F /  4.7 °C 32.2 °F /  0.1 °C 30.26in /  1024.6hPa Calm     72% 0.00in /  0mm 0 W/m2
02:44 40.5 °F /  4.7 °C 32.2 °F /  0.1 °C 30.25in /  1024.3hPa Calm     72% 0.00in /  0mm 0 W/m2
02:49 40.5 °F /  4.7 °C 32.2 °F /  0.1 °C 30.25in /  1024.3hPa NW 0.1mph /  0.2km/h 1mph /  1.6km/h 72% 0.00in /  0mm 0 W/m2
02:54 40.6 °F /  4.8 °C 32.6 °F /  0.3 °C 30.26in /  1024.6hPa Calm   1mph /  1.6km/h 72.8% 0.00in /  0mm 0 W/m2
02:59 40.5 °F /  4.7 °C 32.6 °F /  0.3 °C 30.25in /  1024.3hPa Calm   1mph /  1.6km/h 73% 0.00in /  0mm 0 W/m2
03:04 40.5 °F /  4.7 °C 32.6 °F /  0.3 °C 30.25in /  1024.3hPa Calm   1mph /  1.6km/h 73.1% 0.00in /  0mm 0 W/m2
03:09 40.4 °F /  4.7 °C 33.1 °F /  0.6 °C 30.25in /  1024.3hPa Calm     74.9% 0.00in /  0mm 0 W/m2
03:14 40.1 °F /  4.5 °C 32.8 °F /  0.4 °C 30.26in /  1024.6hPa Calm     75% 0.00in /  0mm 0 W/m2
03:19 39.7 °F /  4.3 °C 32.6 °F /  0.3 °C 30.26in /  1024.6hPa Calm     75.4% 0.00in /  0mm 0 W/m2
03:24 39.4 °F /  4.1 °C 32.4 °F /  0.2 °C 30.26in /  1024.6hPa Calm     76% 0.00in /  0mm 0 W/m2
03:29 39 °F /  3.9 °C 32.1 °F /  0.1 °C 30.26in /  1024.6hPa Calm     76.2% 0.00in /  0mm 0 W/m2
03:34 38.7 °F /  3.7 °C 32.1 °F /  0.1 °C 30.26in /  1024.6hPa Calm     77.2% 0.00in /  0mm 0 W/m2
03:39 38.3 °F /  3.5 °C 32.1 °F /  0.1 °C 30.26in /  1024.6hPa Calm     78.1% 0.00in /  0mm 0 W/m2
03:44 38 °F /  3.3 °C 32 °F /  0 °C 30.26in /  1024.6hPa Calm     79% 0.00in /  0mm 0 W/m2
03:49 37.7 °F /  3.2 °C 32 °F /  0 °C 30.26in /  1024.6hPa Calm     79.6% 0.00in /  0mm 0 W/m2
03:54 37.6 °F /  3.1 °C 32.1 °F /  0.1 °C 30.26in /  1024.6hPa Calm     80.6% 0.00in /  0mm 0 W/m2
03:59 37.4 °F /  3 °C 32.1 °F /  0.1 °C 30.26in /  1024.6hPa Calm     80.8% 0.00in /  0mm 0 W/m2
04:00 37.3 °F /  2.9 °C 32 °F /  0 °C 30.26in /  1024.6hPa Calm     81% 0.00in /  0mm 0 W/m2
04:09 37 °F /  2.8 °C 31.8 °F /  -0.1 °C 30.27in /  1024.9hPa Calm     81% 0.00in /  0mm 0 W/m2
04:14 36.9 °F /  2.7 °C 31.6 °F /  -0.2 °C 30.27in /  1024.9hPa Calm     81% 0.00in /  0mm 0 W/m2
04:19 36.7 °F /  2.6 °C 31.7 °F /  -0.2 °C 30.27in /  1024.9hPa Calm     81.8% 0.00in /  0mm 0 W/m2
04:24 36.6 °F /  2.6 °C 31.6 °F /  -0.2 °C 30.27in /  1024.9hPa Calm     82% 0.00in /  0mm 0 W/m2
04:29 36.5 °F /  2.5 °C 31.6 °F /  -0.2 °C 30.27in /  1024.9hPa Calm     82.2% 0.00in /  0mm 0 W/m2
04:34 36.4 °F /  2.4 °C 31.7 °F /  -0.2 °C 30.27in /  1024.9hPa Calm     83% 0.00in /  0mm 0 W/m2
04:39 36.3 °F /  2.4 °C 31.6 °F /  -0.2 °C 30.28in /  1025.3hPa Calm     83% 0.00in /  0mm 0 W/m2
04:44 36.3 °F /  2.4 °C 31.7 °F /  -0.2 °C 30.28in /  1025.3hPa Calm     83.4% 0.00in /  0mm 0 W/m2
04:49 36.4 °F /  2.4 °C 32.2 °F /  0.1 °C 30.27in /  1024.9hPa Calm     84.7% 0.00in /  0mm 0 W/m2
04:54 36.5 °F /  2.5 °C 32.5 °F /  0.3 °C 30.28in /  1025.3hPa Calm     85% 0.00in /  0mm 0 W/m2
04:59 36.6 °F /  2.6 °C 32.4 °F /  0.2 °C 30.28in /  1025.3hPa Calm     84.4% 0.00in /  0mm 0 W/m2
05:04 36.5 °F /  2.5 °C 32.2 °F /  0.1 °C 30.28in /  1025.3hPa Calm     84% 0.00in /  0mm 0 W/m2
05:09 36.4 °F /  2.4 °C 32.1 °F /  0.1 °C 30.28in /  1025.3hPa Calm     84% 0.00in /  0mm 0 W/m2
05:14 36.2 °F /  2.3 °C 31.9 °F /  -0.1 °C 30.28in /  1025.3hPa Calm     84% 0.00in /  0mm 0 W/m2
05:19 36.1 °F /  2.3 °C 31.7 °F /  -0.2 °C 30.28in /  1025.3hPa Calm     84% 0.00in /  0mm 0 W/m2
05:24 35.9 °F /  2.2 °C 31.5 °F /  -0.3 °C 30.28in /  1025.3hPa Calm     84% 0.00in /  0mm 0 W/m2
05:29 35.7 °F /  2.1 °C 31.4 °F /  -0.3 °C 30.28in /  1025.3hPa Calm     84.1% 0.00in /  0mm 0 W/m2
05:34 35.6 °F /  2 °C 31.5 °F /  -0.3 °C 30.28in /  1025.3hPa Calm     85% 0.00in /  0mm 0 W/m2
05:39 35.5 °F /  1.9 °C 31.4 °F /  -0.3 °C 30.28in /  1025.3hPa Calm     85% 0.00in /  0mm 0 W/m2
05:44 35.3 °F /  1.8 °C 31.3 °F /  -0.4 °C 30.28in /  1025.3hPa Calm     85% 0.00in /  0mm 0 W/m2
05:49 35.2 °F /  1.8 °C 31.2 °F /  -0.4 °C 30.28in /  1025.3hPa Calm     85.1% 0.00in /  0mm 0 W/m2
05:54 35.1 °F /  1.7 °C 31.3 °F /  -0.4 °C 30.28in /  1025.3hPa Calm     86% 0.00in /  0mm 0 W/m2
05:59 34.8 °F /  1.6 °C 31 °F /  -0.6 °C 30.29in /  1025.6hPa Calm     86% 0.00in /  0mm 0 W/m2
06:04 34.6 °F /  1.4 °C 31 °F /  -0.6 °C 30.29in /  1025.6hPa Calm     86.5% 0.00in /  0mm 0 W/m2
06:09 34.4 °F /  1.3 °C 31.3 °F /  -0.4 °C 30.29in /  1025.6hPa Calm     88.3% 0.00in /  0mm 0 W/m2
06:14 34.4 °F /  1.3 °C 31 °F /  -0.6 °C 30.29in /  1025.6hPa Calm     87.2% 0.00in /  0mm 0 W/m2
06:19 34.3 °F /  1.3 °C 31.2 °F /  -0.4 °C 30.29in /  1025.6hPa Calm     88% 0.00in /  0mm 0 W/m2
06:24 34.3 °F /  1.3 °C 31.1 °F /  -0.5 °C 30.29in /  1025.6hPa Calm     88% 0.00in /  0mm 0 W/m2
06:29 34.2 °F /  1.2 °C 31.1 °F /  -0.5 °C 30.29in /  1025.6hPa Calm     88% 0.00in /  0mm 0 W/m2
06:34 34.2 °F /  1.2 °C 31 °F /  -0.6 °C 30.29in /  1025.6hPa Calm     88% 0.00in /  0mm 0 W/m2
06:39 34.1 °F /  1.2 °C 30.9 °F /  -0.6 °C 30.29in /  1025.6hPa Calm     88% 0.00in /  0mm 5 W/m2
06:44 34 °F /  1.1 °C 30.8 °F /  -0.7 °C 30.29in /  1025.6hPa Calm     88% 0.00in /  0mm 5 W/m2
06:49 33.9 °F /  1.1 °C 30.7 °F /  -0.7 °C 30.29in /  1025.6hPa Calm     88% 0.00in /  0mm 9 W/m2
06:54 33.8 °F /  1 °C 30.6 °F /  -0.8 °C 30.29in /  1025.6hPa Calm     88% 0.00in /  0mm 12 W/m2
06:59 33.8 °F /  1 °C 30.7 °F /  -0.7 °C 30.30in /  1026hPa Calm     88.2% 0.00in /  0mm 19 W/m2
07:04 33.8 °F /  1 °C 30.8 °F /  -0.7 °C 30.30in /  1026hPa Calm     88.7% 0.00in /  0mm 26 W/m2
07:08 33.8 °F /  1 °C 30.9 °F /  -0.6 °C 30.31in /  1026.3hPa Calm     89% 0.00in /  0mm 33 W/m2
07:14 34 °F /  1.1 °C 31.1 °F /  -0.5 °C 30.31in /  1026.3hPa Calm     89% 0.00in /  0mm 42 W/m2
07:19 34.2 °F /  1.2 °C 31.3 °F /  -0.4 °C 30.31in /  1026.3hPa Calm     89.1% 0.00in /  0mm 30 W/m2
07:24 34.4 °F /  1.3 °C 31.8 °F /  -0.1 °C 30.31in /  1026.3hPa Calm     90% 0.00in /  0mm 32 W/m2
07:29 34.6 °F /  1.4 °C 32 °F /  0 °C 30.31in /  1026.3hPa Calm     90% 0.00in /  0mm 37 W/m2
07:34 34.9 °F /  1.6 °C 32.2 °F /  0.1 °C 30.32in /  1026.6hPa Calm     90% 0.00in /  0mm 54 W/m2
07:39 35.1 °F /  1.7 °C 32.5 °F /  0.3 °C 30.32in /  1026.6hPa Calm     90% 0.00in /  0mm 53 W/m2
07:44 35.4 °F /  1.9 °C 32.7 °F /  0.4 °C 30.32in /  1026.6hPa Calm     90% 0.00in /  0mm 54 W/m2
07:49 35.7 °F /  2.1 °C 33 °F /  0.6 °C 30.32in /  1026.6hPa Calm     90% 0.00in /  0mm 74 W/m2
07:54 36.1 °F /  2.3 °C 33.4 °F /  0.8 °C 30.32in /  1026.6hPa Calm     90% 0.00in /  0mm 178 W/m2
07:59 36.6 °F /  2.6 °C 33.9 °F /  1.1 °C 30.32in /  1026.6hPa Calm     90% 0.00in /  0mm 225 W/m2
08:00 36.9 °F /  2.7 °C 34.3 °F /  1.3 °C 30.32in /  1026.6hPa Calm     90% 0.00in /  0mm 204 W/m2
08:09 38.5 °F /  3.6 °C 35.6 °F /  2 °C 30.33in /  1027hPa Calm     89.5% 0.00in /  0mm 213 W/m2
08:14 39.6 °F /  4.2 °C 35.9 °F /  2.2 °C 30.33in /  1027hPa Calm     86.7% 0.00in /  0mm 262 W/m2
08:19 40.8 °F /  4.9 °C 35.9 °F /  2.2 °C 30.33in /  1027hPa Calm     82.6% 0.00in /  0mm 287 W/m2
08:24 42 °F /  5.6 °C 35.9 °F /  2.2 °C 30.32in /  1026.6hPa NNW 0.2mph /  0.3km/h 3mph /  4.8km/h 78.9% 0.00in /  0mm 301 W/m2
08:29 43.1 °F /  6.2 °C 36 °F /  2.2 °C 30.32in /  1026.6hPa NNW 0.1mph /  0.2km/h 3mph /  4.8km/h 75.8% 0.00in /  0mm 315 W/m2
08:34 44.1 °F /  6.7 °C 36 °F /  2.2 °C 30.32in /  1026.6hPa NNW 0.6mph /  1km/h 3mph /  4.8km/h 72.8% 0.00in /  0mm 327 W/m2
08:39 44.9 °F /  7.2 °C 36 °F /  2.2 °C 30.33in /  1027hPa Calm   3mph /  4.8km/h 70.9% 0.00in /  0mm 341 W/m2
08:44 45.6 °F /  7.6 °C 36.1 °F /  2.3 °C 30.33in /  1027hPa North 0.3mph /  0.5km/h 3mph /  4.8km/h 69.2% 0.00in /  0mm 348 W/m2
08:49 46.3 °F /  7.9 °C 36.2 °F /  2.3 °C 30.33in /  1027hPa North 0.3mph /  0.5km/h 4mph /  6.4km/h 67.8% 0.00in /  0mm 352 W/m2
08:54 46.9 °F /  8.3 °C 35.8 °F /  2.1 °C 30.33in /  1027hPa NNE 0.5mph /  0.8km/h 4mph /  6.4km/h 65.3% 0.00in /  0mm 371 W/m2
08:59 47.3 °F /  8.5 °C 35.5 °F /  1.9 °C 30.32in /  1026.6hPa NNE 0.3mph /  0.5km/h 4mph /  6.4km/h 63.6% 0.00in /  0mm 376 W/m2
09:04 47.4 °F /  8.6 °C 34.8 °F /  1.6 °C 30.33in /  1027hPa NNE 0.5mph /  0.8km/h 4mph /  6.4km/h 61.4% 0.00in /  0mm 390 W/m2
09:09 47.2 °F /  8.4 °C 34.1 °F /  1.2 °C 30.33in /  1027hPa NE 0.6mph /  1km/h 3mph /  4.8km/h 60.3% 0.00in /  0mm 390 W/m2
09:14 46.9 °F /  8.3 °C 34.3 °F /  1.3 °C 30.33in /  1027hPa NE 0.1mph /  0.2km/h 3mph /  4.8km/h 61.4% 0.00in /  0mm 348 W/m2
09:19 46.9 °F /  8.3 °C 35.2 °F /  1.8 °C 30.33in /  1027hPa Calm   3mph /  4.8km/h 63.5% 0.00in /  0mm 279 W/m2
09:24 46.9 °F /  8.3 °C 34.5 °F /  1.4 °C 30.33in /  1027hPa NE 0.6mph /  1km/h 3mph /  4.8km/h 61.7% 0.00in /  0mm 341 W/m2
09:29 46.8 °F /  8.2 °C 34.5 °F /  1.4 °C 30.33in /  1027hPa NE 0.1mph /  0.2km/h 3mph /  4.8km/h 62% 0.00in /  0mm 353 W/m2
09:34 46.7 °F /  8.2 °C 34.4 °F /  1.3 °C 30.33in /  1027hPa Calm   3mph /  4.8km/h 61.8% 0.00in /  0mm 116 W/m2
09:39 46.6 °F /  8.1 °C 34.4 °F /  1.3 °C 30.33in /  1027hPa Calm     62.2% 0.00in /  0mm 90 W/m2
09:44 46.5 °F /  8.1 °C 34 °F /  1.1 °C 30.33in /  1027hPa Calm     61.5% 0.00in /  0mm 185 W/m2
09:49 46.5 °F /  8.1 °C 34.4 °F /  1.3 °C 30.33in /  1027hPa Calm     62.4% 0.00in /  0mm 221 W/m2
09:54 46.8 °F /  8.2 °C 34.9 °F /  1.6 °C 30.33in /  1027hPa NE 0.1mph /  0.2km/h 1mph /  1.6km/h 63% 0.00in /  0mm 221 W/m2
09:59 47.2 °F /  8.4 °C 35.2 °F /  1.8 °C 30.33in /  1027hPa Calm   1mph /  1.6km/h 62.8% 0.00in /  0mm 179 W/m2
10:04 47.6 °F /  8.7 °C 35.1 °F /  1.7 °C 30.33in /  1027hPa Calm   1mph /  1.6km/h 61.8% 0.00in /  0mm 179 W/m2
10:09 48.1 °F /  8.9 °C 35.4 °F /  1.9 °C 30.33in /  1027hPa Calm     61.2% 0.00in /  0mm 439 W/m2
10:14 48.7 °F /  9.3 °C 35.5 °F /  1.9 °C 30.33in /  1027hPa NE 0.1mph /  0.2km/h 2mph /  3.2km/h 60.1% 0.00in /  0mm 487 W/m2
10:19 49.6 °F /  9.8 °C 35.8 °F /  2.1 °C 30.33in /  1027hPa NE 0.1mph /  0.2km/h 2mph /  3.2km/h 58.9% 0.00in /  0mm 483 W/m2
10:24 50.5 °F /  10.3 °C 35.7 °F /  2.1 °C 30.33in /  1027hPa NE 0.5mph /  0.8km/h 3mph /  4.8km/h 56.8% 0.00in /  0mm 504 W/m2
10:29 51.4 °F /  10.8 °C 36.2 °F /  2.3 °C 30.33in /  1027hPa NE 0.2mph /  0.3km/h 3mph /  4.8km/h 55.9% 0.00in /  0mm 504 W/m2
10:34 52.3 °F /  11.3 °C 36.1 °F /  2.3 °C 30.33in /  1027hPa Calm   3mph /  4.8km/h 53.9% 0.00in /  0mm 490 W/m2
10:39 53 °F /  11.7 °C 36.1 °F /  2.3 °C 30.33in /  1027hPa Calm     52.6% 0.00in /  0mm 436 W/m2
10:44 53.5 °F /  11.9 °C 36.3 °F /  2.4 °C 30.33in /  1027hPa Calm     52% 0.00in /  0mm 378 W/m2
10:49 53.9 °F /  12.2 °C 36 °F /  2.2 °C 30.33in /  1027hPa Calm     50.5% 0.00in /  0mm 229 W/m2
10:54 54.2 °F /  12.3 °C 36.2 °F /  2.3 °C 30.33in /  1027hPa Calm   1mph /  1.6km/h 50.5% 0.00in /  0mm 350 W/m2
10:59 54.2 °F /  12.3 °C 36.2 °F /  2.3 °C 30.33in /  1027hPa Calm   1mph /  1.6km/h 50.5% 0.00in /  0mm 281 W/m2
11:04 54.2 °F /  12.3 °C 36.3 °F /  2.4 °C 30.32in /  1026.6hPa Calm   1mph /  1.6km/h 50.7% 0.00in /  0mm 234 W/m2
11:09 54.2 °F /  12.3 °C 36.3 °F /  2.4 °C 30.32in /  1026.6hPa Calm   1mph /  1.6km/h 50.6% 0.00in /  0mm 315 W/m2
11:14 54.4 °F /  12.4 °C 36.5 °F /  2.5 °C 30.32in /  1026.6hPa Calm   1mph /  1.6km/h 50.7% 0.00in /  0mm 195 W/m2
11:19 54.5 °F /  12.5 °C 35.5 °F /  1.9 °C 30.31in /  1026.3hPa Calm   1mph /  1.6km/h 48.5% 0.00in /  0mm 188 W/m2
11:24 54.6 °F /  12.6 °C 34.6 °F /  1.4 °C 30.31in /  1026.3hPa NE 0.1mph /  0.2km/h 1mph /  1.6km/h 46.6% 0.00in /  0mm 237 W/m2
11:29 54.6 °F /  12.6 °C 34.9 °F /  1.6 °C 30.31in /  1026.3hPa Calm   1mph /  1.6km/h 47.1% 0.00in /  0mm 262 W/m2
11:34 54.7 °F /  12.6 °C 35.1 °F /  1.7 °C 30.31in /  1026.3hPa Calm   1mph /  1.6km/h 47.5% 0.00in /  0mm 316 W/m2
11:39 54.8 °F /  12.7 °C 35.2 °F /  1.8 °C 30.31in /  1026.3hPa Calm     47.4% 0.00in /  0mm 225 W/m2
11:44 55 °F /  12.8 °C 34.3 °F /  1.3 °C 30.30in /  1026hPa NE 0.3mph /  0.5km/h 3mph /  4.8km/h 45.5% 0.00in /  0mm 190 W/m2
11:49 55.1 °F /  12.8 °C 34.3 °F /  1.3 °C 30.30in /  1026hPa Calm   3mph /  4.8km/h 45.2% 0.00in /  0mm 218 W/m2
11:54 55.3 °F /  12.9 °C 34.9 °F /  1.6 °C 30.29in /  1025.6hPa Calm   3mph /  4.8km/h 46% 0.00in /  0mm 200 W/m2
11:59 55.5 °F /  13.1 °C 35.6 °F /  2 °C 30.29in /  1025.6hPa Calm   3mph /  4.8km/h 47% 0.00in /  0mm 174 W/m2
12:00 55.6 °F /  13.1 °C 36.2 °F /  2.3 °C 30.28in /  1025.3hPa Calm   3mph /  4.8km/h 48% 0.00in /  0mm 123 W/m2
12:09 56 °F /  13.3 °C 35.6 °F /  2 °C 30.29in /  1025.6hPa Calm     46.1% 0.00in /  0mm 167 W/m2
12:12 56.2 °F /  13.4 °C 35.7 °F /  2.1 °C 30.28in /  1025.3hPa Calm     46% 0.00in /  0mm 218 W/m2
13:00 57.1 °F /  13.9 °C 36.5 °F /  2.5 °C 30.26in /  1024.6hPa Calm   3mph /  4.8km/h 46% 0.00in /  0mm 135 W/m2
14:00 59.8 °F /  15.4 °C 39.6 °F /  4.2 °C 30.25in /  1024.3hPa Calm   4mph /  6.4km/h 47% 0.00in /  0mm 188 W/m2
14:30 58.8 °F /  14.9 °C 39.7 °F /  4.3 °C 30.25in /  1024.3hPa ESE 1mph /  1.6km/h 6mph /  9.7km/h 49% 0.00in /  0mm 104 W/m2
15:00 57.7 °F /  14.3 °C 39.7 °F /  4.3 °C 30.26in /  1024.6hPa Calm   6mph /  9.7km/h 51% 0.00in /  0mm 63 W/m2
15:30 57.1 °F /  13.9 °C 39.7 °F /  4.3 °C 30.26in /  1024.6hPa Calm   4mph /  6.4km/h 52% 0.00in /  0mm 51 W/m2
16:04 56.4 °F /  13.6 °C 40.3 °F /  4.6 °C 30.27in /  1024.9hPa South 0.2mph /  0.3km/h 1mph /  1.6km/h 54.7% 0.00in /  0mm 16 W/m2
16:09 56.3 °F /  13.5 °C 40.3 °F /  4.6 °C 30.27in /  1024.9hPa South 0.1mph /  0.2km/h 2mph /  3.2km/h 55% 0.00in /  0mm 14 W/m2
16:14 56.1 °F /  13.4 °C 40.3 °F /  4.6 °C 30.26in /  1024.6hPa SSE 0.2mph /  0.3km/h 5mph /  8km/h 55.3% 0.00in /  0mm 12 W/m2
16:19 55.8 °F /  13.2 °C 40.4 °F /  4.7 °C 30.26in /  1024.6hPa Calm   5mph /  8km/h 56% 0.00in /  0mm 9 W/m2
16:24 55.6 °F /  13.1 °C 40.4 °F /  4.7 °C 30.26in /  1024.6hPa Calm   5mph /  8km/h 56.5% 0.00in /  0mm 5 W/m2
16:29 55.4 °F /  13 °C 40.5 °F /  4.7 °C 30.27in /  1024.9hPa SE 0.1mph /  0.2km/h 5mph /  8km/h 57.1% 0.00in /  0mm 0 W/m2
16:34 55.2 °F /  12.9 °C 40.3 °F /  4.6 °C 30.27in /  1024.9hPa SE 0.1mph /  0.2km/h 5mph /  8km/h 57.2% 0.00in /  0mm 0 W/m2
16:39 55 °F /  12.8 °C 40.6 °F /  4.8 °C 30.27in /  1024.9hPa Calm   1mph /  1.6km/h 58% 0.00in /  0mm 0 W/m2
16:44 54.9 °F /  12.7 °C 40.4 °F /  4.7 °C 30.27in /  1024.9hPa SE 0.1mph /  0.2km/h 3mph /  4.8km/h 58% 0.00in /  0mm 0 W/m2
16:49 54.8 °F /  12.7 °C 40.5 °F /  4.7 °C 30.27in /  1024.9hPa Calm   3mph /  4.8km/h 58.4% 0.00in /  0mm 0 W/m2
16:54 54.6 °F /  12.6 °C 40.6 °F /  4.8 °C 30.27in /  1024.9hPa Calm   3mph /  4.8km/h 59% 0.00in /  0mm 0 W/m2
16:59 54.4 °F /  12.4 °C 40.8 °F /  4.9 °C 30.27in /  1024.9hPa Calm   3mph /  4.8km/h 59.9% 0.00in /  0mm 0 W/m2
17:04 54.4 °F /  12.4 °C 40.9 °F /  4.9 °C 30.27in /  1024.9hPa SE 0.3mph /  0.5km/h 3mph /  4.8km/h 60.3% 0.00in /  0mm 0 W/m2
17:09 54.3 °F /  12.4 °C 41.2 °F /  5.1 °C 30.27in /  1024.9hPa SSW 0.1mph /  0.2km/h 3mph /  4.8km/h 61% 0.00in /  0mm 0 W/m2
17:14 54.3 °F /  12.4 °C 41.3 °F /  5.2 °C 30.27in /  1024.9hPa Calm   3mph /  4.8km/h 61.3% 0.00in /  0mm 0 W/m2
17:19 54.2 °F /  12.3 °C 41.5 °F /  5.3 °C 30.27in /  1024.9hPa Calm   3mph /  4.8km/h 62% 0.00in /  0mm 0 W/m2
17:24 54.2 °F /  12.3 °C 41.5 °F /  5.3 °C 30.27in /  1024.9hPa Calm   3mph /  4.8km/h 62% 0.00in /  0mm 0 W/m2
17:29 54.1 °F /  12.3 °C 41.4 °F /  5.2 °C 30.28in /  1025.3hPa Calm   3mph /  4.8km/h 62.1% 0.00in /  0mm 0 W/m2
17:34 54 °F /  12.2 °C 41.7 °F /  5.4 °C 30.28in /  1025.3hPa Calm   3mph /  4.8km/h 63% 0.00in /  0mm 0 W/m2
17:39 53.8 °F /  12.1 °C 41.5 °F /  5.3 °C 30.28in /  1025.3hPa Calm   1mph /  1.6km/h 63% 0.00in /  0mm 0 W/m2
17:44 53.6 °F /  12 °C 41.6 °F /  5.3 °C 30.28in /  1025.3hPa Calm   1mph /  1.6km/h 63.5% 0.00in /  0mm 0 W/m2
17:49 53.4 °F /  11.9 °C 41.6 °F /  5.3 °C 30.29in /  1025.6hPa South 0.1mph /  0.2km/h 2mph /  3.2km/h 64% 0.00in /  0mm 0 W/m2
17:54 53.3 °F /  11.8 °C 41.8 °F /  5.4 °C 30.29in /  1025.6hPa Calm   2mph /  3.2km/h 65% 0.00in /  0mm 0 W/m2
17:59 53.1 °F /  11.7 °C 41.7 °F /  5.4 °C 30.29in /  1025.6hPa Calm   2mph /  3.2km/h 65% 0.00in /  0mm 0 W/m2
18:04 53 °F /  11.7 °C 41.8 °F /  5.4 °C 30.29in /  1025.6hPa Calm   2mph /  3.2km/h 65.6% 0.00in /  0mm 0 W/m2
18:09 53 °F /  11.7 °C 41.9 °F /  5.5 °C 30.29in /  1025.6hPa Calm     66% 0.00in /  0mm 0 W/m2
18:14 52.9 °F /  11.6 °C 41.9 °F /  5.5 °C 30.29in /  1025.6hPa Calm     66% 0.00in /  0mm 0 W/m2
18:19 52.9 °F /  11.6 °C 42.2 °F /  5.7 °C 30.29in /  1025.6hPa South 0.1mph /  0.2km/h 2mph /  3.2km/h 66.8% 0.00in /  0mm 0 W/m2
18:24 52.8 °F /  11.6 °C 42 °F /  5.6 °C 30.29in /  1025.6hPa Calm   2mph /  3.2km/h 66.6% 0.00in /  0mm 0 W/m2
18:29 52.8 °F /  11.6 °C 42.1 °F /  5.6 °C 30.29in /  1025.6hPa Calm   2mph /  3.2km/h 67% 0.00in /  0mm 0 W/m2
18:34 52.7 °F /  11.5 °C 42.1 °F /  5.6 °C 30.30in /  1026hPa Calm   2mph /  3.2km/h 67% 0.00in /  0mm 0 W/m2
18:39 52.6 °F /  11.4 °C 42.3 °F /  5.7 °C 30.30in /  1026hPa Calm     67.7% 0.00in /  0mm 0 W/m2
18:44 52.6 °F /  11.4 °C 42.3 °F /  5.7 °C 30.29in /  1025.6hPa Calm     68% 0.00in /  0mm 0 W/m2
18:49 52.6 °F /  11.4 °C 42.3 °F /  5.7 °C 30.28in /  1025.3hPa Calm     68% 0.00in /  0mm 0 W/m2
18:54 52.5 °F /  11.4 °C 42.2 °F /  5.7 °C 30.28in /  1025.3hPa Calm     68% 0.00in /  0mm 0 W/m2
18:59 52.4 °F /  11.3 °C 42.3 °F /  5.7 °C 30.28in /  1025.3hPa Calm   1mph /  1.6km/h 68.3% 0.00in /  0mm 0 W/m2
19:04 52.4 °F /  11.3 °C 42.5 °F /  5.8 °C 30.29in /  1025.6hPa Calm   1mph /  1.6km/h 69% 0.00in /  0mm 0 W/m2
19:09 52.4 °F /  11.3 °C 42.5 °F /  5.8 °C 30.28in /  1025.3hPa Calm     69% 0.00in /  0mm 0 W/m2
19:14 52.4 °F /  11.3 °C 42.9 °F /  6.1 °C 30.28in /  1025.3hPa Calm   1mph /  1.6km/h 69.9% 0.00in /  0mm 0 W/m2
19:19 52.4 °F /  11.3 °C 42.9 °F /  6.1 °C 30.27in /  1024.9hPa SSE 0.3mph /  0.5km/h 3mph /  4.8km/h 70% 0.00in /  0mm 0 W/m2
19:24 52.4 °F /  11.3 °C 42.9 °F /  6.1 °C 30.27in /  1024.9hPa SE 0.4mph /  0.6km/h 3mph /  4.8km/h 70% 0.00in /  0mm 0 W/m2
19:29 52.4 °F /  11.3 °C 43 °F /  6.1 °C 30.27in /  1024.9hPa ESE 0.3mph /  0.5km/h 3mph /  4.8km/h 70.3% 0.00in /  0mm 0 W/m2
19:34 52.4 °F /  11.3 °C 43.1 °F /  6.2 °C 30.27in /  1024.9hPa Calm   3mph /  4.8km/h 70.4% 0.00in /  0mm 0 W/m2
19:39 52.4 °F /  11.3 °C 43.3 °F /  6.3 °C 30.28in /  1025.3hPa ESE 0.7mph /  1.1km/h 3mph /  4.8km/h 70.9% 0.00in /  0mm 0 W/m2
19:44 52.5 °F /  11.4 °C 43.4 °F /  6.3 °C 30.27in /  1024.9hPa ESE 0.5mph /  0.8km/h 4mph /  6.4km/h 71% 0.00in /  0mm 0 W/m2
19:49 52.6 °F /  11.4 °C 43.5 °F /  6.4 °C 30.27in /  1024.9hPa ESE 0.3mph /  0.5km/h 4mph /  6.4km/h 71% 0.00in /  0mm 0 W/m2
19:54 52.6 °F /  11.4 °C 43.5 °F /  6.4 °C 30.27in /  1024.9hPa Calm   4mph /  6.4km/h 71% 0.00in /  0mm 0 W/m2
19:59 52.6 °F /  11.4 °C 43.5 °F /  6.4 °C 30.27in /  1024.9hPa ESE 0.4mph /  0.6km/h 4mph /  6.4km/h 71% 0.00in /  0mm 0 W/m2
20:09 52.6 °F /  11.4 °C 43.5 °F /  6.4 °C 30.27in /  1024.9hPa ESE 0.1mph /  0.2km/h 3mph /  4.8km/h 71% 0.00in /  0mm 0 W/m2
20:14 52.6 °F /  11.4 °C 43.5 °F /  6.4 °C 30.27in /  1024.9hPa ESE 0.3mph /  0.5km/h 3mph /  4.8km/h 71% 0.00in /  0mm 0 W/m2
20:19 52.7 °F /  11.5 °C 43.9 °F /  6.6 °C 30.27in /  1024.9hPa ESE 0.3mph /  0.5km/h 3mph /  4.8km/h 72% 0.00in /  0mm 0 W/m2
20:24 52.7 °F /  11.5 °C 43.9 °F /  6.6 °C 30.26in /  1024.6hPa ESE 0.1mph /  0.2km/h 3mph /  4.8km/h 72% 0.00in /  0mm 0 W/m2
20:29 52.7 °F /  11.5 °C 43.9 °F /  6.6 °C 30.26in /  1024.6hPa Calm   3mph /  4.8km/h 72% 0.00in /  0mm 0 W/m2
20:34 52.7 °F /  11.5 °C 44 °F /  6.7 °C 30.26in /  1024.6hPa ESE 0.4mph /  0.6km/h 3mph /  4.8km/h 72% 0.00in /  0mm 0 W/m2
20:39 52.8 °F /  11.6 °C 44 °F /  6.7 °C 30.25in /  1024.3hPa ESE 0.1mph /  0.2km/h 3mph /  4.8km/h 72% 0.00in /  0mm 0 W/m2
20:44 52.8 °F /  11.6 °C 44.2 °F /  6.8 °C 30.25in /  1024.3hPa ESE 0.3mph /  0.5km/h 3mph /  4.8km/h 72.3% 0.00in /  0mm 0 W/m2
20:49 52.9 °F /  11.6 °C 44.3 °F /  6.8 °C 30.26in /  1024.6hPa Calm   3mph /  4.8km/h 72.4% 0.00in /  0mm 0 W/m2
20:54 52.9 °F /  11.6 °C 44.3 °F /  6.8 °C 30.26in /  1024.6hPa ESE 0.3mph /  0.5km/h 3mph /  4.8km/h 72.4% 0.00in /  0mm 0 W/m2
20:59 52.9 °F /  11.6 °C 44.5 °F /  6.9 °C 30.26in /  1024.6hPa ESE 0.1mph /  0.2km/h 3mph /  4.8km/h 73% 0.00in /  0mm 0 W/m2
21:04 53 °F /  11.7 °C 44.6 °F /  7 °C 30.26in /  1024.6hPa Calm   3mph /  4.8km/h 73% 0.00in /  0mm 0 W/m2
21:09 53 °F /  11.7 °C 44.6 °F /  7 °C 30.26in /  1024.6hPa Calm   1mph /  1.6km/h 73% 0.00in /  0mm 0 W/m2
21:14 53 °F /  11.7 °C 44.6 °F /  7 °C 30.26in /  1024.6hPa ESE 0.3mph /  0.5km/h 4mph /  6.4km/h 73% 0.00in /  0mm 0 W/m2
21:19 53 °F /  11.7 °C 44.6 °F /  7 °C 30.26in /  1024.6hPa ESE 0.1mph /  0.2km/h 4mph /  6.4km/h 73% 0.00in /  0mm 0 W/m2
21:24 53 °F /  11.7 °C 44.6 °F /  7 °C 30.26in /  1024.6hPa ESE 0.1mph /  0.2km/h 4mph /  6.4km/h 73% 0.00in /  0mm 0 W/m2
21:29 53 °F /  11.7 °C 44.7 °F /  7.1 °C 30.27in /  1024.9hPa Calm   4mph /  6.4km/h 73.4% 0.00in /  0mm 0 W/m2
21:34 53 °F /  11.7 °C 45 °F /  7.2 °C 30.27in /  1024.9hPa Calm   4mph /  6.4km/h 74% 0.00in /  0mm 0 W/m2
21:39 53.1 °F /  11.7 °C 45 °F /  7.2 °C 30.27in /  1024.9hPa Calm     74% 0.00in /  0mm 0 W/m2
21:44 53.1 °F /  11.7 °C 45 °F /  7.2 °C 30.27in /  1024.9hPa Calm     74% 0.00in /  0mm 0 W/m2
21:49 53 °F /  11.7 °C 45 °F /  7.2 °C 30.27in /  1024.9hPa Calm     74% 0.00in /  0mm 0 W/m2
21:54 53 °F /  11.7 °C 45 °F /  7.2 °C 30.26in /  1024.6hPa Calm     74% 0.00in /  0mm 0 W/m2
21:59 53 °F /  11.7 °C 45.2 °F /  7.3 °C 30.26in /  1024.6hPa ESE 0.4mph /  0.6km/h 3mph /  4.8km/h 74.8% 0.00in /  0mm 0 W/m2
22:04 53 °F /  11.7 °C 45.3 °F /  7.4 °C 30.26in /  1024.6hPa Calm   3mph /  4.8km/h 75% 0.00in /  0mm 0 W/m2
22:09 53 °F /  11.7 °C 45.3 °F /  7.4 °C 30.26in /  1024.6hPa ESE 0.3mph /  0.5km/h 3mph /  4.8km/h 75% 0.00in /  0mm 0 W/m2
22:14 53 °F /  11.7 °C 45.3 °F /  7.4 °C 30.26in /  1024.6hPa Calm   3mph /  4.8km/h 75% 0.00in /  0mm 0 W/m2
22:19 53 °F /  11.7 °C 45.3 °F /  7.4 °C 30.26in /  1024.6hPa ESE 0.2mph /  0.3km/h 3mph /  4.8km/h 75% 0.00in /  0mm 0 W/m2
22:24 53 °F /  11.7 °C 45.3 °F /  7.4 °C 30.26in /  1024.6hPa ESE 0.3mph /  0.5km/h 4mph /  6.4km/h 75% 0.00in /  0mm 0 W/m2
22:29 53 °F /  11.7 °C 45.3 °F /  7.4 °C 30.26in /  1024.6hPa East 0.7mph /  1.1km/h 5mph /  8km/h 75% 0.00in /  0mm 0 W/m2
22:34 53 °F /  11.7 °C 45.3 °F /  7.4 °C 30.25in /  1024.3hPa East 0.5mph /  0.8km/h 5mph /  8km/h 75% 0.00in /  0mm 0 W/m2
22:36 53.1 °F /  11.7 °C 45.4 °F /  7.4 °C 30.25in /  1024.3hPa East 0.7mph /  1.1km/h 3mph /  4.8km/h 75% 0.00in /  0mm 0 W/m2
23:09 53.2 °F /  11.8 °C 45.1 °F /  7.3 °C 30.26in /  1024.6hPa Calm     74% 0.00in /  0mm 0 W/m2
23:14 53.2 °F /  11.8 °C 45.1 °F /  7.3 °C 30.25in /  1024.3hPa Calm     74% 0.00in /  0mm 0 W/m2
23:19 53.2 °F /  11.8 °C 45.1 °F /  7.3 °C 30.26in /  1024.6hPa Calm     74% 0.00in /  0mm 0 W/m2
23:24 53.2 °F /  11.8 °C 45.3 °F /  7.4 °C 30.26in /  1024.6hPa East 0.5mph /  0.8km/h 3mph /  4.8km/h 74.5% 0.00in /  0mm 0 W/m2
23:29 53.2 °F /  11.8 °C 45.2 °F /  7.3 °C 30.25in /  1024.3hPa Calm   3mph /  4.8km/h 74.3% 0.00in /  0mm 0 W/m2
23:34 53.2 °F /  11.8 °C 45.3 °F /  7.4 °C 30.25in /  1024.3hPa Calm   3mph /  4.8km/h 74.4% 0.00in /  0mm 0 W/m2
23:39 53.2 °F /  11.8 °C 45.5 °F /  7.5 °C 30.25in /  1024.3hPa East 0.7mph /  1.1km/h 3mph /  4.8km/h 75% 0.00in /  0mm 0 W/m2
23:44 53.2 °F /  11.8 °C 45.5 °F /  7.5 °C 30.24in /  1023.9hPa Calm   3mph /  4.8km/h 75% 0.00in /  0mm 0 W/m2
23:49 53.2 °F /  11.8 °C 45.5 °F /  7.5 °C 30.25in /  1024.3hPa Calm   3mph /  4.8km/h 75% 0.00in /  0mm 0 W/m2
23:54 53.2 °F /  11.8 °C 45.5 °F /  7.5 °C 30.25in /  1024.3hPa Calm   3mph /  4.8km/h 75% 0.00in /  0mm 0 W/m2
23:59 53.2 °F /  11.8 °C 45.5 °F /  7.5 °C 30.25in /  1024.3hPa Calm   3mph /  4.8km/h 75% 0.00in /  0mm 0 W/m2
Hartford County Weather
Compliments of Weather Underground - 2 mb